createdAt,value
2023-03-25T00:00:18.281Z,79.80
2023-03-25T00:02:47.610Z,79.80
2023-03-25T00:05:17.883Z,79.40
2023-03-25T00:07:47.173Z,79.30
2023-03-25T00:10:15.402Z,78.80
2023-03-25T00:12:43.530Z,77.70
2023-03-25T00:15:13.434Z,78.30
2023-03-25T00:17:42.413Z,78.30
2023-03-25T00:20:10.823Z,78.80
2023-03-25T00:22:43.962Z,79.00
2023-03-25T00:25:13.642Z,78.70
2023-03-25T00:27:44.347Z,78.80
2023-03-25T00:30:12.759Z,78.30
2023-03-25T00:32:40.716Z,78.50
2023-03-25T00:35:09.476Z,78.00
2023-03-25T00:37:37.565Z,78.00
2023-03-25T00:40:07.837Z,77.30
2023-03-25T00:42:36.038Z,77.20
2023-03-25T00:45:04.444Z,76.70
2023-03-25T00:47:32.909Z,76.50
2023-03-25T00:50:03.760Z,76.90
2023-03-25T00:52:31.772Z,77.00
2023-03-25T00:54:59.858Z,76.90
2023-03-25T00:57:30.315Z,77.80
2023-03-25T00:59:58.308Z,78.50
2023-03-25T01:02:26.344Z,78.70
2023-03-25T01:04:55.057Z,78.90
2023-03-25T01:07:22.968Z,79.00
2023-03-25T01:09:52.609Z,78.50
2023-03-25T01:12:20.656Z,78.70
2023-03-25T01:14:50.194Z,78.90
2023-03-25T01:17:18.157Z,79.10
2023-03-25T01:19:46.111Z,79.40
2023-03-25T01:22:14.982Z,78.80
2023-03-25T01:24:43.507Z,77.10
2023-03-25T01:27:11.578Z,77.10
2023-03-25T01:29:39.642Z,77.00
2023-03-25T01:32:08.927Z,77.00
2023-03-25T01:34:38.620Z,77.20
2023-03-25T01:37:07.993Z,77.20
2023-03-25T01:39:35.908Z,77.20
2023-03-25T01:42:03.931Z,79.50
2023-03-25T01:44:50.522Z,80.00
2023-03-25T01:47:19.947Z,81.30
2023-03-25T01:49:47.957Z,83.40
2023-03-25T01:52:17.222Z,86.00
2023-03-25T01:54:45.540Z,85.90
2023-03-25T01:57:17.725Z,87.80
2023-03-25T01:59:45.885Z,86.70
2023-03-25T02:02:16.613Z,85.60
2023-03-25T02:04:51.635Z,85.10
2023-03-25T02:07:20.008Z,85.60
2023-03-25T02:09:49.443Z,85.70
2023-03-25T02:12:17.615Z,84.70
2023-03-25T02:14:46.133Z,83.70
2023-03-25T02:17:19.253Z,83.60
2023-03-25T02:20:08.256Z,83.30
2023-03-25T02:22:52.283Z,83.80
2023-03-25T02:25:35.457Z,83.80
2023-03-25T02:28:06.914Z,84.50
2023-03-25T02:30:47.468Z,85.00
2023-03-25T02:33:31.182Z,86.40
2023-03-25T02:36:15.227Z,85.80
2023-03-25T02:38:46.650Z,85.40
2023-03-25T02:41:17.267Z,85.10
2023-03-25T02:43:46.966Z,84.90
2023-03-25T02:46:17.451Z,84.60
2023-03-25T02:48:51.185Z,85.40
2023-03-25T02:51:22.651Z,85.40
2023-03-25T02:53:53.434Z,85.90
2023-03-25T02:56:23.192Z,86.20
2023-03-25T02:58:55.458Z,86.10
2023-03-25T03:01:26.958Z,86.90
2023-03-25T03:03:56.499Z,86.10
2023-03-25T03:06:25.784Z,86.10
2023-03-25T03:09:03.894Z,86.10
2023-03-25T03:11:33.731Z,86.10
2023-03-25T03:14:09.494Z,86.10
2023-03-25T03:16:41.931Z,86.20
2023-03-25T03:19:21.198Z,86.10
2023-03-25T03:21:52.567Z,87.30
2023-03-25T03:24:24.766Z,87.80
2023-03-25T03:26:55.293Z,87.90
2023-03-25T03:29:27.357Z,87.40
2023-03-25T03:32:06.050Z,88.70
2023-03-25T03:34:36.624Z,89.00
2023-03-25T03:37:05.774Z,88.60
2023-03-25T03:39:36.485Z,89.10
2023-03-25T03:42:08.662Z,88.30
2023-03-25T03:44:39.662Z,87.20
2023-03-25T03:47:11.054Z,86.40
2023-03-25T03:49:41.989Z,86.00
2023-03-25T03:52:12.488Z,86.40
2023-03-25T03:54:44.997Z,85.90
2023-03-25T03:57:14.731Z,85.70
2023-03-25T03:59:47.682Z,85.90
2023-03-25T04:02:18.423Z,84.70
2023-03-25T04:04:46.454Z,84.30
2023-03-25T04:07:16.387Z,84.30
2023-03-25T04:09:54.922Z,83.40
2023-03-25T04:12:25.782Z,83.50
2023-03-25T04:14:54.213Z,82.30
2023-03-25T04:17:22.267Z,82.20
2023-03-25T04:19:53.616Z,82.80
2023-03-25T04:22:22.705Z,82.30
2023-03-25T04:24:55.007Z,82.10
2023-03-25T04:27:24.007Z,81.70
2023-03-25T04:29:52.836Z,81.60
2023-03-25T04:32:21.148Z,81.20
2023-03-25T04:34:49.154Z,81.10
2023-03-25T04:37:17.129Z,81.90
2023-03-25T04:39:45.120Z,80.90
2023-03-25T04:42:17.817Z,80.70
2023-03-25T04:44:45.815Z,78.80
2023-03-25T04:47:16.297Z,78.40
2023-03-25T04:49:45.233Z,77.10
2023-03-25T04:52:13.420Z,77.50
2023-03-25T04:54:41.425Z,78.00
2023-03-25T04:57:10.749Z,77.40
2023-03-25T04:59:40.218Z,77.90
2023-03-25T05:02:13.563Z,77.10
2023-03-25T05:04:43.013Z,77.20
2023-03-25T05:07:10.993Z,77.60
2023-03-25T05:09:38.935Z,77.10
2023-03-25T05:12:11.177Z,77.20
2023-03-25T05:14:40.635Z,77.20
2023-03-25T05:17:08.574Z,77.30
2023-03-25T05:19:37.805Z,76.80
2023-03-25T05:22:05.814Z,76.60
2023-03-25T05:24:33.744Z,77.30
2023-03-25T05:27:02.410Z,76.00
2023-03-25T05:29:33.932Z,76.70
2023-03-25T05:32:03.542Z,76.10
2023-03-25T05:34:31.985Z,76.20
2023-03-25T05:36:59.943Z,76.30
2023-03-25T05:39:28.064Z,75.90
2023-03-25T05:42:02.654Z,75.50
2023-03-25T05:44:33.550Z,75.70
2023-03-25T05:47:02.944Z,75.00
2023-03-25T05:49:32.649Z,73.70
2023-03-25T05:52:01.785Z,73.60
2023-03-25T05:54:30.729Z,74.00
2023-03-25T05:56:58.743Z,74.10
2023-03-25T05:59:26.784Z,73.90
2023-03-25T06:01:54.701Z,72.40
2023-03-25T06:04:24.737Z,71.40
2023-03-25T06:06:52.724Z,71.50
2023-03-25T06:09:20.843Z,72.00
2023-03-25T06:11:53.421Z,71.60
2023-03-25T06:14:25.499Z,71.80
2023-03-25T06:16:53.514Z,70.70
2023-03-25T06:19:26.412Z,71.40
2023-03-25T06:21:56.011Z,71.40
2023-03-25T06:24:23.961Z,71.50
2023-03-25T06:26:52.230Z,74.40
2023-03-25T06:29:20.846Z,77.90
2023-03-25T06:31:48.832Z,80.30
2023-03-25T06:34:16.941Z,82.90
2023-03-25T06:36:44.889Z,83.60
2023-03-25T06:39:14.235Z,85.00
2023-03-25T06:41:42.347Z,85.30
2023-03-25T06:44:32.653Z,84.50
2023-03-25T06:47:20.568Z,86.40
2023-03-25T06:49:51.495Z,83.40
2023-03-25T06:52:19.677Z,84.20
2023-03-25T06:54:49.099Z,83.80
2023-03-25T06:57:17.271Z,84.20
2023-03-25T06:59:45.501Z,83.50
2023-03-25T07:02:13.628Z,84.40
2023-03-25T07:04:41.627Z,83.10
2023-03-25T07:07:09.948Z,83.30
2023-03-25T07:09:38.204Z,81.90
2023-03-25T07:12:09.255Z,82.20
2023-03-25T07:14:37.664Z,82.00
2023-03-25T07:17:06.294Z,81.40
2023-03-25T07:19:34.342Z,80.40
2023-03-25T07:22:02.291Z,78.00
2023-03-25T07:24:30.307Z,79.50
2023-03-25T07:26:58.293Z,78.20
2023-03-25T07:29:29.614Z,76.50
2023-03-25T07:31:57.606Z,76.60
2023-03-25T07:34:25.855Z,73.70
2023-03-25T07:36:53.919Z,75.50
2023-03-25T07:39:21.929Z,75.00
2023-03-25T07:41:49.993Z,76.90
2023-03-25T07:44:44.025Z,77.70
2023-03-25T07:47:11.988Z,77.10
2023-03-25T07:49:41.352Z,78.00
2023-03-25T07:52:09.331Z,79.80
2023-03-25T07:54:38.352Z,81.70
2023-03-25T07:57:06.399Z,79.90
2023-03-25T07:59:34.420Z,80.80
2023-03-25T08:02:04.020Z,82.00
2023-03-25T08:04:32.272Z,80.00
2023-03-25T08:07:00.770Z,81.40
2023-03-25T08:09:29.012Z,78.50
2023-03-25T08:11:57.024Z,78.20
2023-03-25T08:14:25.166Z,74.90
2023-03-25T08:16:53.280Z,75.60
2023-03-25T08:19:22.709Z,74.20
2023-03-25T08:21:51.920Z,72.00
2023-03-25T08:24:19.908Z,75.30
2023-03-25T08:26:48.097Z,76.50
2023-03-25T08:29:17.483Z,77.20
2023-03-25T08:31:47.008Z,77.30
2023-03-25T08:34:15.334Z,77.30
2023-03-25T08:36:44.723Z,79.20
2023-03-25T08:39:12.767Z,79.30
2023-03-25T08:41:40.882Z,80.20
2023-03-25T08:44:09.242Z,80.20
2023-03-25T08:46:37.999Z,82.30
2023-03-25T08:49:06.726Z,83.50
2023-03-25T08:51:34.967Z,86.10
2023-03-25T08:54:04.321Z,86.40
2023-03-25T08:56:32.373Z,86.40
2023-03-25T08:59:00.373Z,85.60
2023-03-25T09:01:29.493Z,85.30
2023-03-25T09:03:57.829Z,85.70
2023-03-25T09:06:26.047Z,85.00
2023-03-25T09:08:56.078Z,85.00
2023-03-25T09:11:35.976Z,84.50
2023-03-25T09:14:05.043Z,83.10
2023-03-25T09:16:33.216Z,82.30
2023-03-25T09:19:01.186Z,82.40
2023-03-25T09:21:29.181Z,83.20
2023-03-25T09:23:57.169Z,82.80
2023-03-25T09:26:26.496Z,78.40
2023-03-25T09:28:55.566Z,82.30
2023-03-25T09:31:23.765Z,82.70
2023-03-25T09:33:51.762Z,81.20
2023-03-25T09:36:19.687Z,84.10
2023-03-25T09:38:47.780Z,84.80
2023-03-25T09:41:32.739Z,84.20
2023-03-25T09:44:04.620Z,85.60
2023-03-25T09:46:32.589Z,84.40
2023-03-25T09:49:01.032Z,84.00
2023-03-25T09:51:30.581Z,84.50
2023-03-25T09:54:01.781Z,86.10
2023-03-25T09:56:35.770Z,90.40
2023-03-25T09:59:12.922Z,87.60
2023-03-25T10:01:43.775Z,85.90
2023-03-25T10:04:32.433Z,88.00
2023-03-25T10:07:06.152Z,84.50
2023-03-25T10:09:41.049Z,82.90
2023-03-25T10:12:25.571Z,82.20
2023-03-25T10:14:59.297Z,81.60
2023-03-25T10:17:31.374Z,79.30
2023-03-25T10:20:04.810Z,78.80
2023-03-25T10:22:36.616Z,75.10
2023-03-25T10:25:06.078Z,76.90
2023-03-25T10:27:38.354Z,78.10
2023-03-25T10:30:11.913Z,74.20
2023-03-25T10:32:41.405Z,75.30
2023-03-25T10:35:12.452Z,78.10
2023-03-25T10:37:43.056Z,82.70
2023-03-25T10:40:16.588Z,79.60
2023-03-25T10:42:55.527Z,77.90
2023-03-25T10:45:24.032Z,82.50
2023-03-25T10:47:53.160Z,85.10
2023-03-25T10:50:21.960Z,83.20
2023-03-25T10:52:51.753Z,85.10
2023-03-25T10:55:23.859Z,86.90
2023-03-25T10:57:53.795Z,87.30
2023-03-25T11:00:24.506Z,85.40
2023-03-25T11:02:52.633Z,84.20
2023-03-25T11:05:21.890Z,81.70
2023-03-25T11:07:51.835Z,80.20
2023-03-25T11:10:21.592Z,77.00
2023-03-25T11:12:51.631Z,76.70
2023-03-25T11:15:22.411Z,73.30
2023-03-25T11:17:57.240Z,69.10
2023-03-25T11:20:28.691Z,69.10
2023-03-25T11:23:00.334Z,69.00
2023-03-25T11:25:30.945Z,66.60
2023-03-25T11:28:02.704Z,67.80
2023-03-25T11:30:32.002Z,64.70
2023-03-25T11:33:02.432Z,62.20
2023-03-25T11:35:31.744Z,63.20
2023-03-25T11:38:01.109Z,62.70
2023-03-25T11:40:29.392Z,58.60
2023-03-25T11:42:58.741Z,58.10
2023-03-25T11:45:28.930Z,57.70
2023-03-25T11:48:01.417Z,56.10
2023-03-25T11:50:30.831Z,53.90
2023-03-25T11:53:00.268Z,51.20
2023-03-25T11:55:30.258Z,48.80
2023-03-25T11:57:59.576Z,48.70
2023-03-25T12:00:29.359Z,52.00
2023-03-25T12:03:03.003Z,47.80
2023-03-25T12:05:31.464Z,53.60
2023-03-25T12:08:02.857Z,60.30
2023-03-25T12:10:37.065Z,61.30
2023-03-25T12:13:08.313Z,67.30
2023-03-25T12:15:41.289Z,74.30
2023-03-25T12:18:17.695Z,84.50
2023-03-25T12:20:51.353Z,80.90
2023-03-25T12:23:25.006Z,71.90
2023-03-25T12:25:57.952Z,72.60
2023-03-25T12:28:32.333Z,66.60
2023-03-25T12:31:04.399Z,63.60
2023-03-25T12:33:40.220Z,60.50
2023-03-25T12:36:14.836Z,55.50
2023-03-25T12:38:50.209Z,56.50
2023-03-25T12:41:21.352Z,52.80
2023-03-25T12:44:01.229Z,51.50
2023-03-25T12:46:37.395Z,53.60
2023-03-25T12:49:16.583Z,56.30
2023-03-25T12:51:48.299Z,50.70
2023-03-25T12:54:25.836Z,52.20
2023-03-25T12:56:58.972Z,49.00
2023-03-25T12:59:41.909Z,48.90
2023-03-25T13:02:16.849Z,45.10
2023-03-25T13:04:51.702Z,47.40
2023-03-25T13:07:21.090Z,46.10
2023-03-25T13:09:54.140Z,46.60
2023-03-25T13:12:27.806Z,45.40
2023-03-25T13:14:58.811Z,44.10
2023-03-25T13:17:29.533Z,43.10
2023-03-25T13:20:00.889Z,37.80
2023-03-25T13:22:32.597Z,33.70
2023-03-25T13:25:02.396Z,35.60
2023-03-25T13:27:32.205Z,36.00
2023-03-25T13:30:00.213Z,36.20
2023-03-25T13:32:30.857Z,33.70
2023-03-25T13:35:01.697Z,33.10
2023-03-25T13:37:32.448Z,30.00
2023-03-25T13:40:11.590Z,30.80
2023-03-25T13:42:44.392Z,30.30
2023-03-25T13:45:17.741Z,31.30
2023-03-25T13:47:49.120Z,34.10
2023-03-25T13:52:51.687Z,35.20
2023-03-25T13:55:22.354Z,34.50
2023-03-25T13:57:59.996Z,35.10
2023-03-25T14:00:46.463Z,33.00
2023-03-25T14:03:33.684Z,33.60
2023-03-25T14:06:20.408Z,34.40
2023-03-25T14:09:15.895Z,33.20
2023-03-25T14:11:45.996Z,35.40
2023-03-25T14:14:15.459Z,40.70
2023-03-25T14:16:45.152Z,42.70
2023-03-25T14:19:14.571Z,36.60
2023-03-25T14:21:45.240Z,32.20
2023-03-25T14:24:15.473Z,31.30
2023-03-25T14:26:47.165Z,32.00
2023-03-25T14:29:20.357Z,32.80
2023-03-25T14:32:00.981Z,30.60
2023-03-25T14:34:28.947Z,31.80
2023-03-25T14:37:27.373Z,33.80
2023-03-25T14:39:59.807Z,31.80
2023-03-25T14:42:29.911Z,32.50
2023-03-25T14:45:14.143Z,32.50
2023-03-25T14:47:51.895Z,32.50
2023-03-25T14:50:33.192Z,33.50
2023-03-25T14:53:03.024Z,31.70
2023-03-25T14:55:33.695Z,31.20
2023-03-25T14:58:02.957Z,31.50
2023-03-25T15:00:33.972Z,30.00
2023-03-25T15:03:04.524Z,28.30
2023-03-25T15:05:35.044Z,29.30
2023-03-25T15:08:12.411Z,27.90
2023-03-25T15:10:43.070Z,28.50
2023-03-25T15:13:13.369Z,27.10
2023-03-25T15:16:00.176Z,28.20
2023-03-25T15:18:53.606Z,30.50
2023-03-25T15:21:24.123Z,28.50
2023-03-25T15:23:52.662Z,28.10
2023-03-25T15:26:28.273Z,27.10
2023-03-25T15:29:13.113Z,27.80
2023-03-25T15:31:47.313Z,27.40
2023-03-25T15:34:19.416Z,27.50
2023-03-25T15:37:05.382Z,26.50
2023-03-25T15:39:41.063Z,27.50
2023-03-25T15:42:33.956Z,25.40
2023-03-25T15:45:09.687Z,25.20
2023-03-25T15:47:54.984Z,24.20
2023-03-25T15:50:45.782Z,25.00
2023-03-25T15:53:41.778Z,25.30
2023-03-25T15:56:12.927Z,25.20
2023-03-25T15:58:42.169Z,25.20
2023-03-25T16:01:17.365Z,25.30
2023-03-25T16:03:46.183Z,25.10
2023-03-25T16:06:16.046Z,25.70
2023-03-25T16:08:45.748Z,25.20
2023-03-25T16:11:23.974Z,25.20
2023-03-25T16:14:02.627Z,25.20
2023-03-25T16:16:35.883Z,25.20
2023-03-25T16:19:04.794Z,26.00
2023-03-25T16:21:32.924Z,25.60
2023-03-25T16:24:04.102Z,26.00
2023-03-25T16:26:36.115Z,26.10
2023-03-25T16:29:08.747Z,26.50
2023-03-25T16:31:42.800Z,26.70
2023-03-25T16:34:14.553Z,27.10
2023-03-25T16:36:43.228Z,26.90
2023-03-25T16:39:14.024Z,27.50
2023-03-25T16:41:43.912Z,27.70
2023-03-25T16:44:14.304Z,27.00
2023-03-25T16:46:43.836Z,28.20
2023-03-25T16:49:15.710Z,29.00
2023-03-25T16:51:45.413Z,28.90
2023-03-25T16:54:23.058Z,28.40
2023-03-25T16:56:51.798Z,27.50
2023-03-25T16:59:29.133Z,28.40
2023-03-25T17:01:59.725Z,27.60
2023-03-25T17:04:39.346Z,28.30
2023-03-25T17:07:10.194Z,28.60
2023-03-25T17:09:44.108Z,28.40
2023-03-25T17:12:16.646Z,28.90
2023-03-25T17:14:45.575Z,27.50
2023-03-25T17:17:22.861Z,28.80
2023-03-25T17:19:52.486Z,28.00
2023-03-25T17:22:25.348Z,28.50
2023-03-25T17:24:54.934Z,28.00
2023-03-25T17:27:25.958Z,27.40
2023-03-25T17:29:54.739Z,28.00
2023-03-25T17:32:24.135Z,27.60
2023-03-25T17:34:56.600Z,28.00
2023-03-25T17:37:26.455Z,28.10
2023-03-25T17:39:54.548Z,28.40
2023-03-25T17:42:24.563Z,28.20
2023-03-25T17:44:53.052Z,27.80
2023-03-25T17:47:22.245Z,27.90
2023-03-25T17:49:53.676Z,28.00
2023-03-25T17:52:21.655Z,27.90
2023-03-25T17:54:49.621Z,28.10
2023-03-25T17:57:18.760Z,28.00
2023-03-25T17:59:47.852Z,28.10
2023-03-25T18:02:16.825Z,27.50
2023-03-25T18:04:45.220Z,28.80
2023-03-25T18:07:14.918Z,29.80
2023-03-25T18:09:42.970Z,29.70
2023-03-25T18:12:11.476Z,29.70
2023-03-25T18:14:39.495Z,30.80
2023-03-25T18:17:07.598Z,31.90
2023-03-25T18:19:35.598Z,32.00
2023-03-25T18:22:17.472Z,32.90
2023-03-25T18:24:49.419Z,33.70
2023-03-25T18:27:17.326Z,33.60
2023-03-25T18:29:45.366Z,34.70
2023-03-25T18:32:13.298Z,34.20
2023-03-25T18:34:41.275Z,34.90
2023-03-25T18:37:10.676Z,35.30
2023-03-25T18:39:38.618Z,34.60
2023-03-25T18:42:07.981Z,36.00
2023-03-25T18:44:36.007Z,36.80
2023-03-25T18:47:04.221Z,36.30
2023-03-25T18:49:32.240Z,37.00
2023-03-25T18:52:02.486Z,36.90
2023-03-25T18:54:30.649Z,36.90
2023-03-25T18:56:58.803Z,37.40
2023-03-25T18:59:29.382Z,38.00
2023-03-25T19:01:57.406Z,37.50
2023-03-25T19:04:26.039Z,38.30
2023-03-25T19:06:54.756Z,38.40
2023-03-25T19:09:23.704Z,38.30
2023-03-25T19:11:52.152Z,38.00
2023-03-25T19:14:20.267Z,38.50
2023-03-25T19:17:01.362Z,39.10
2023-03-25T19:19:31.972Z,38.80
2023-03-25T19:22:00.735Z,38.40
2023-03-25T19:24:29.149Z,39.60
2023-03-25T19:26:57.457Z,39.40
2023-03-25T19:29:25.537Z,40.00
2023-03-25T19:31:55.121Z,39.70
2023-03-25T19:34:23.089Z,38.40
2023-03-25T19:36:53.675Z,39.30
2023-03-25T19:39:22.694Z,38.80
2023-03-25T19:41:52.655Z,38.70
2023-03-25T19:44:20.618Z,38.40
2023-03-25T19:46:48.598Z,38.50
2023-03-25T19:49:28.986Z,39.50
2023-03-25T19:52:04.691Z,40.90
2023-03-25T19:54:32.742Z,41.80
2023-03-25T19:57:00.967Z,42.70
2023-03-25T19:59:29.203Z,46.90
2023-03-25T20:01:58.548Z,46.90
2023-03-25T20:04:28.165Z,48.00
2023-03-25T20:06:56.219Z,49.30
2023-03-25T20:09:25.562Z,50.40
2023-03-25T20:11:53.645Z,52.00
2023-03-25T20:14:21.542Z,52.20
2023-03-25T20:16:49.618Z,55.20
2023-03-25T20:19:17.888Z,56.30
2023-03-25T20:21:47.191Z,56.60
2023-03-25T20:24:15.295Z,57.40
2023-03-25T20:26:43.277Z,56.00
2023-03-25T20:29:11.484Z,56.20
2023-03-25T20:31:39.579Z,57.70
2023-03-25T20:34:07.823Z,56.80
2023-03-25T20:36:37.475Z,57.50
2023-03-25T20:39:07.835Z,56.00
2023-03-25T20:41:35.809Z,57.00
2023-03-25T20:44:03.800Z,61.40
2023-03-25T20:46:31.983Z,61.50
2023-03-25T20:49:01.947Z,62.20
2023-03-25T20:51:30.462Z,61.60
2023-03-25T20:53:58.590Z,59.80
2023-03-25T20:56:28.033Z,60.60
2023-03-25T20:58:56.084Z,59.00
2023-03-25T21:01:24.433Z,59.30
2023-03-25T21:03:53.250Z,59.50
2023-03-25T21:06:24.810Z,60.10
2023-03-25T21:08:56.007Z,58.50
2023-03-25T21:11:24.227Z,57.30
2023-03-25T21:13:53.868Z,57.30
2023-03-25T21:16:21.901Z,56.40
2023-03-25T21:18:50.359Z,56.90
2023-03-25T21:21:19.911Z,57.90
2023-03-25T21:23:49.227Z,56.30
2023-03-25T21:26:17.563Z,56.20
2023-03-25T21:28:45.799Z,57.60
2023-03-25T21:31:19.418Z,57.70
2023-03-25T21:33:49.890Z,55.60
2023-03-25T21:36:19.990Z,55.60
2023-03-25T21:38:47.967Z,57.10
2023-03-25T21:41:15.994Z,57.50
2023-03-25T21:43:45.719Z,57.90
2023-03-25T21:46:15.408Z,57.90
2023-03-25T21:48:45.116Z,59.30
2023-03-25T21:51:14.754Z,61.30
2023-03-25T21:53:46.186Z,62.10
2023-03-25T21:56:15.457Z,62.00
2023-03-25T21:58:43.461Z,62.30
2023-03-25T22:01:12.364Z,62.70
2023-03-25T22:03:45.397Z,63.80
2023-03-25T22:06:14.440Z,62.90
2023-03-25T22:08:42.549Z,61.10
2023-03-25T22:11:11.499Z,62.30
2023-03-25T22:13:39.726Z,62.20
2023-03-25T22:16:08.246Z,61.40
2023-03-25T22:18:36.549Z,59.80
2023-03-25T22:21:10.600Z,58.30
2023-03-25T22:23:40.149Z,58.30
2023-03-25T22:26:08.857Z,58.30
2023-03-25T22:28:37.244Z,58.20
2023-03-25T22:31:09.162Z,58.00
2023-03-25T22:33:37.183Z,59.70
2023-03-25T22:36:06.717Z,60.90
2023-03-25T22:38:36.014Z,61.20
2023-03-25T22:41:04.607Z,61.90
2023-03-25T22:43:33.227Z,61.70
2023-03-25T22:46:02.776Z,61.30
2023-03-25T22:48:31.451Z,60.70
2023-03-25T22:50:59.763Z,60.60
2023-03-25T22:53:28.105Z,60.10
2023-03-25T22:55:57.840Z,60.00
2023-03-25T22:58:26.643Z,58.50
2023-03-25T23:00:55.364Z,59.20
2023-03-25T23:03:24.379Z,59.50
2023-03-25T23:05:56.425Z,58.00
2023-03-25T23:08:26.000Z,59.50
2023-03-25T23:10:53.955Z,60.30
2023-03-25T23:13:23.966Z,60.70
2023-03-25T23:15:57.510Z,60.50
2023-03-25T23:18:25.647Z,60.30
2023-03-25T23:20:53.948Z,59.60
2023-03-25T23:23:23.905Z,58.20
2023-03-25T23:26:03.623Z,56.70
2023-03-25T23:28:36.131Z,56.40
2023-03-25T23:31:04.806Z,55.70
2023-03-25T23:33:34.316Z,54.90
2023-03-25T23:36:02.935Z,55.10
2023-03-25T23:38:31.572Z,53.90
2023-03-25T23:41:00.270Z,53.20
2023-03-25T23:43:28.332Z,53.10
2023-03-25T23:45:57.708Z,52.80
2023-03-25T23:48:26.141Z,52.40
2023-03-25T23:50:54.495Z,53.70
2023-03-25T23:53:23.134Z,53.40
2023-03-25T23:55:53.130Z,51.90
2023-03-25T23:58:23.304Z,52.10
